sensor_id;sensor_type;location;lat;lon;timestamp;temperature;humidity
9385;DHT22;4732;49.340;10.886;2023-03-23T04:02:51;11.20;99.90
9385;DHT22;4732;49.340;10.886;2023-03-23T04:05:19;11.20;99.90
9385;DHT22;4732;49.340;10.886;2023-03-23T04:07:45;11.20;99.90
9385;DHT22;4732;49.340;10.886;2023-03-23T04:10:14;11.20;99.90
9385;DHT22;4732;49.340;10.886;2023-03-23T04:12:40;11.20;99.90
9385;DHT22;4732;49.340;10.886;2023-03-23T04:15:07;11.20;99.90
9385;DHT22;4732;49.340;10.886;2023-03-23T04:17:33;11.20;99.90
9385;DHT22;4732;49.340;10.886;2023-03-23T04:19:59;11.20;99.90
9385;DHT22;4732;49.340;10.886;2023-03-23T04:22:26;11.20;99.90
9385;DHT22;4732;49.340;10.886;2023-03-23T04:24:57;11.20;99.90
9385;DHT22;4732;49.340;10.886;2023-03-23T04:27:24;11.20;99.90
9385;DHT22;4732;49.340;10.886;2023-03-23T04:29:50;11.30;99.90
9385;DHT22;4732;49.340;10.886;2023-03-23T04:32:16;11.30;99.90
9385;DHT22;4732;49.340;10.886;2023-03-23T04:34:43;11.40;99.90
9385;DHT22;4732;49.340;10.886;2023-03-23T04:37:09;11.40;99.90
9385;DHT22;4732;49.340;10.886;2023-03-23T04:39:35;11.40;99.90
9385;DHT22;4732;49.340;10.886;2023-03-23T04:42:00;11.40;99.90
9385;DHT22;4732;49.340;10.886;2023-03-23T04:44:27;11.40;99.90
9385;DHT22;4732;49.340;10.886;2023-03-23T04:46:53;11.40;99.90
9385;DHT22;4732;49.340;10.886;2023-03-23T04:49:19;11.40;99.90
9385;DHT22;4732;49.340;10.886;2023-03-23T04:51:48;11.40;99.90
9385;DHT22;4732;49.340;10.886;2023-03-23T04:54:15;11.30;99.90
9385;DHT22;4732;49.340;10.886;2023-03-23T04:56:41;11.30;99.90
9385;DHT22;4732;49.340;10.886;2023-03-23T04:59:07;11.30;99.90
9385;DHT22;4732;49.340;10.886;2023-03-23T05:01:33;11.40;99.90
9385;DHT22;4732;49.340;10.886;2023-03-23T05:03:59;11.30;99.90
9385;DHT22;4732;49.340;10.886;2023-03-23T05:06:25;11.30;99.90
9385;DHT22;4732;49.340;10.886;2023-03-23T05:08:51;11.20;99.90
9385;DHT22;4732;49.340;10.886;2023-03-23T05:11:16;11.20;99.90
9385;DHT22;4732;49.340;10.886;2023-03-23T05:13:42;11.20;99.90
9385;DHT22;4732;49.340;10.886;2023-03-23T05:16:09;11.20;99.90
9385;DHT22;4732;49.340;10.886;2023-03-23T05:18:35;11.10;99.90
9385;DHT22;4732;49.340;10.886;2023-03-23T05:21:01;11.20;99.90
9385;DHT22;4732;49.340;10.886;2023-03-23T05:23:28;11.10;99.90
9385;DHT22;4732;49.340;10.886;2023-03-23T05:25:57;11.10;99.90
9385;DHT22;4732;49.340;10.886;2023-03-23T05:28:28;11.10;99.90
9385;DHT22;4732;49.340;10.886;2023-03-23T05:30:55;11.10;99.90
9385;DHT22;4732;49.340;10.886;2023-03-23T05:33:21;11.10;99.90
9385;DHT22;4732;49.340;10.886;2023-03-23T05:35:47;11.10;99.90
9385;DHT22;4732;49.340;10.886;2023-03-23T05:38:14;11.10;99.90
9385;DHT22;4732;49.340;10.886;2023-03-23T05:40:40;11.20;99.90
9385;DHT22;4732;49.340;10.886;2023-03-23T05:43:07;11.20;99.90
9385;DHT22;4732;49.340;10.886;2023-03-23T05:45:33;11.20;99.90
9385;DHT22;4732;49.340;10.886;2023-03-23T05:47:58;11.30;99.90
9385;DHT22;4732;49.340;10.886;2023-03-23T05:50:23;11.30;99.90
9385;DHT22;4732;49.340;10.886;2023-03-23T05:52:49;11.30;99.90
9385;DHT22;4732;49.340;10.886;2023-03-23T05:55:15;11.30;99.90
9385;DHT22;4732;49.340;10.886;2023-03-23T05:57:41;11.40;99.90
9385;DHT22;4732;49.340;10.886;2023-03-23T06:00:07;11.40;99.90
9385;DHT22;4732;49.340;10.886;2023-03-23T06:02:40;11.50;99.90
9385;DHT22;4732;49.340;10.886;2023-03-23T06:05:09;11.60;99.90
9385;DHT22;4732;49.340;10.886;2023-03-23T06:07:34;11.70;99.90
9385;DHT22;4732;49.340;10.886;2023-03-23T06:10:00;11.70;99.90
9385;DHT22;4732;49.340;10.886;2023-03-23T06:12:26;11.80;99.90
9385;DHT22;4732;49.340;10.886;2023-03-23T06:14:51;11.80;99.90
9385;DHT22;4732;49.340;10.886;2023-03-23T06:17:17;11.90;99.90
9385;DHT22;4732;49.340;10.886;2023-03-23T06:19:43;11.90;99.90
9385;DHT22;4732;49.340;10.886;2023-03-23T06:22:10;12.10;99.90
9385;DHT22;4732;49.340;10.886;2023-03-23T06:24:36;12.10;99.90
9385;DHT22;4732;49.340;10.886;2023-03-23T06:27:02;12.10;99.90
9385;DHT22;4732;49.340;10.886;2023-03-23T06:29:27;12.20;99.90
9385;DHT22;4732;49.340;10.886;2023-03-23T06:31:58;12.20;99.90
9385;DHT22;4732;49.340;10.886;2023-03-23T06:34:24;12.30;99.90
9385;DHT22;4732;49.340;10.886;2023-03-23T06:36:50;12.30;99.90
9385;DHT22;4732;49.340;10.886;2023-03-23T06:39:15;12.30;99.90
9385;DHT22;4732;49.340;10.886;2023-03-23T06:41:41;12.30;99.90
9385;DHT22;4732;49.340;10.886;2023-03-23T06:44:07;12.40;99.90
9385;DHT22;4732;49.340;10.886;2023-03-23T06:46:34;12.40;99.90
9385;DHT22;4732;49.340;10.886;2023-03-23T06:48:59;12.50;99.90
9385;DHT22;4732;49.340;10.886;2023-03-23T06:51:25;12.60;99.90
9385;DHT22;4732;49.340;10.886;2023-03-23T06:53:50;12.60;99.90
9385;DHT22;4732;49.340;10.886;2023-03-23T06:56:16;12.70;99.90
9385;DHT22;4732;49.340;10.886;2023-03-23T06:58:42;12.70;99.90
9385;DHT22;4732;49.340;10.886;2023-03-23T07:01:08;12.80;99.90
9385;DHT22;4732;49.340;10.886;2023-03-23T07:03:35;12.90;99.90
9385;DHT22;4732;49.340;10.886;2023-03-23T07:06:00;13.10;99.90
9385;DHT22;4732;49.340;10.886;2023-03-23T07:08:26;13.20;99.90
9385;DHT22;4732;49.340;10.886;2023-03-23T07:10:53;13.30;99.90
9385;DHT22;4732;49.340;10.886;2023-03-23T07:13:19;13.40;99.90
9385;DHT22;4732;49.340;10.886;2023-03-23T07:15:45;13.50;99.90
9385;DHT22;4732;49.340;10.886;2023-03-23T07:18:11;13.50;99.90
9385;DHT22;4732;49.340;10.886;2023-03-23T07:20:37;13.60;99.90
9385;DHT22;4732;49.340;10.886;2023-03-23T07:23:03;13.60;99.90
9385;DHT22;4732;49.340;10.886;2023-03-23T07:25:31;13.60;99.90
9385;DHT22;4732;49.340;10.886;2023-03-23T07:27:58;13.60;99.90
9385;DHT22;4732;49.340;10.886;2023-03-23T07:30:25;13.50;99.90
9385;DHT22;4732;49.340;10.886;2023-03-23T07:32:51;13.50;99.90
9385;DHT22;4732;49.340;10.886;2023-03-23T07:35:17;13.40;99.90
9385;DHT22;4732;49.340;10.886;2023-03-23T07:37:42;13.50;99.90
9385;DHT22;4732;49.340;10.886;2023-03-23T07:40:09;13.40;99.90
9385;DHT22;4732;49.340;10.886;2023-03-23T07:42:44;13.40;99.90
9385;DHT22;4732;49.340;10.886;2023-03-23T07:45:12;13.40;99.90
9385;DHT22;4732;49.340;10.886;2023-03-23T07:47:41;13.40;99.90
9385;DHT22;4732;49.340;10.886;2023-03-23T07:50:08;13.50;99.90
9385;DHT22;4732;49.340;10.886;2023-03-23T07:52:35;13.40;99.90
9385;DHT22;4732;49.340;10.886;2023-03-23T07:55:01;13.50;99.90
9385;DHT22;4732;49.340;10.886;2023-03-23T07:57:29;13.60;99.90
9385;DHT22;4732;49.340;10.886;2023-03-23T07:59:56;13.70;99.90
9385;DHT22;4732;49.340;10.886;2023-03-23T08:02:22;13.80;99.90
9385;DHT22;4732;49.340;10.886;2023-03-23T08:04:47;13.80;99.90
9385;DHT22;4732;49.340;10.886;2023-03-23T08:07:14;13.80;99.90
9385;DHT22;4732;49.340;10.886;2023-03-23T08:09:42;13.80;99.90
9385;DHT22;4732;49.340;10.886;2023-03-23T08:12:07;13.90;99.90
9385;DHT22;4732;49.340;10.886;2023-03-23T08:14:33;13.80;99.90
9385;DHT22;4732;49.340;10.886;2023-03-23T08:16:58;13.80;99.90
9385;DHT22;4732;49.340;10.886;2023-03-23T08:19:24;13.80;99.90
9385;DHT22;4732;49.340;10.886;2023-03-23T08:21:50;13.70;99.90
9385;DHT22;4732;49.340;10.886;2023-03-23T08:24:16;13.60;99.90
9385;DHT22;4732;49.340;10.886;2023-03-23T08:26:41;13.50;99.90
9385;DHT22;4732;49.340;10.886;2023-03-23T08:29:07;13.50;99.90
9385;DHT22;4732;49.340;10.886;2023-03-23T08:31:34;13.40;99.90
9385;DHT22;4732;49.340;10.886;2023-03-23T08:34:01;13.30;99.90
9385;DHT22;4732;49.340;10.886;2023-03-23T08:36:27;13.30;99.90
9385;DHT22;4732;49.340;10.886;2023-03-23T08:38:53;13.30;99.90
9385;DHT22;4732;49.340;10.886;2023-03-23T08:41:19;13.20;99.90
9385;DHT22;4732;49.340;10.886;2023-03-23T08:43:45;13.20;99.90
9385;DHT22;4732;49.340;10.886;2023-03-23T08:46:11;13.10;99.90
9385;DHT22;4732;49.340;10.886;2023-03-23T08:48:37;13.10;99.90
9385;DHT22;4732;49.340;10.886;2023-03-23T08:51:04;13.20;99.90
9385;DHT22;4732;49.340;10.886;2023-03-23T08:53:30;13.20;99.90
9385;DHT22;4732;49.340;10.886;2023-03-23T08:56:02;13.30;99.90
9385;DHT22;4732;49.340;10.886;2023-03-23T08:58:28;13.30;99.90
9385;DHT22;4732;49.340;10.886;2023-03-23T09:00:54;13.30;99.90
9385;DHT22;4732;49.340;10.886;2023-03-23T09:03:20;13.40;99.90
9385;DHT22;4732;49.340;10.886;2023-03-23T09:05:45;13.40;99.90
9385;DHT22;4732;49.340;10.886;2023-03-23T09:08:11;13.40;99.90
9385;DHT22;4732;49.340;10.886;2023-03-23T09:10:37;13.40;99.90
9385;DHT22;4732;49.340;10.886;2023-03-23T09:13:04;13.50;99.90
9385;DHT22;4732;49.340;10.886;2023-03-23T09:15:30;13.60;99.90
9385;DHT22;4732;49.340;10.886;2023-03-23T09:17:56;13.60;99.90
9385;DHT22;4732;49.340;10.886;2023-03-23T09:20:24;13.70;99.90
9385;DHT22;4732;49.340;10.886;2023-03-23T09:22:53;13.80;99.90
9385;DHT22;4732;49.340;10.886;2023-03-23T09:25:21;13.80;99.90
9385;DHT22;4732;49.340;10.886;2023-03-23T09:27:52;13.90;99.90
9385;DHT22;4732;49.340;10.886;2023-03-23T09:30:22;14.00;99.90
9385;DHT22;4732;49.340;10.886;2023-03-23T09:32:48;14.00;99.90
9385;DHT22;4732;49.340;10.886;2023-03-23T09:35:14;14.10;99.90
9385;DHT22;4732;49.340;10.886;2023-03-23T09:37:42;14.20;99.90
9385;DHT22;4732;49.340;10.886;2023-03-23T09:40:15;14.20;99.90
9385;DHT22;4732;49.340;10.886;2023-03-23T09:43:03;14.30;99.90
9385;DHT22;4732;49.340;10.886;2023-03-23T09:45:43;14.40;99.90
9385;DHT22;4732;49.340;10.886;2023-03-23T09:48:38;14.50;99.90
9385;DHT22;4732;49.340;10.886;2023-03-23T09:53:45;14.70;99.90
9385;DHT22;4732;49.340;10.886;2023-03-23T09:56:14;14.70;99.90
9385;DHT22;4732;49.340;10.886;2023-03-23T09:58:57;15.40;99.90
9385;DHT22;4732;49.340;10.886;2023-03-23T10:01:33;14.80;99.90
9385;DHT22;4732;49.340;10.886;2023-03-23T10:06:35;14.80;99.90
9385;DHT22;4732;49.340;10.886;2023-03-23T10:09:03;14.80;99.90
9385;DHT22;4732;49.340;10.886;2023-03-23T10:11:33;14.70;99.90
9385;DHT22;4732;49.340;10.886;2023-03-23T10:14:24;14.70;99.90
9385;DHT22;4732;49.340;10.886;2023-03-23T10:22:03;14.50;99.90
9385;DHT22;4732;49.340;10.886;2023-03-23T10:24:37;14.40;99.90
9385;DHT22;4732;49.340;10.886;2023-03-23T10:27:29;14.30;99.90
9385;DHT22;4732;49.340;10.886;2023-03-23T10:33:08;14.30;99.90
9385;DHT22;4732;49.340;10.886;2023-03-23T10:35:49;14.30;99.90
9385;DHT22;4732;49.340;10.886;2023-03-23T10:38:21;14.20;99.90
9385;DHT22;4732;49.340;10.886;2023-03-23T10:40:52;14.20;99.90
9385;DHT22;4732;49.340;10.886;2023-03-23T10:43:19;14.30;99.90
9385;DHT22;4732;49.340;10.886;2023-03-23T10:45:51;14.30;99.90
9385;DHT22;4732;49.340;10.886;2023-03-23T10:48:25;14.30;99.90
9385;DHT22;4732;49.340;10.886;2023-03-23T10:50:57;14.30;99.90
9385;DHT22;4732;49.340;10.886;2023-03-23T10:53:34;14.50;99.90
9385;DHT22;4732;49.340;10.886;2023-03-23T10:56:01;14.60;99.90
9385;DHT22;4732;49.340;10.886;2023-03-23T10:58:33;14.80;99.90
9385;DHT22;4732;49.340;10.886;2023-03-23T11:01:01;14.80;99.90
9385;DHT22;4732;49.340;10.886;2023-03-23T11:06:02;14.70;99.90
9385;DHT22;4732;49.340;10.886;2023-03-23T11:08:31;14.60;99.90
9385;DHT22;4732;49.340;10.886;2023-03-23T11:11:17;14.60;99.90
9385;DHT22;4732;49.340;10.886;2023-03-23T11:13:46;14.50;99.90
9385;DHT22;4732;49.340;10.886;2023-03-23T11:16:26;14.50;99.90
9385;DHT22;4732;49.340;10.886;2023-03-23T11:18:51;14.60;99.90
9385;DHT22;4732;49.340;10.886;2023-03-23T11:21:19;14.60;99.90
9385;DHT22;4732;49.340;10.886;2023-03-23T11:23:59;14.60;99.90
9385;DHT22;4732;49.340;10.886;2023-03-23T11:26:33;14.60;99.90
9385;DHT22;4732;49.340;10.886;2023-03-23T11:31:38;14.60;99.90
9385;DHT22;4732;49.340;10.886;2023-03-23T11:36:37;14.60;99.90
9385;DHT22;4732;49.340;10.886;2023-03-23T11:41:53;14.60;99.90
9385;DHT22;4732;49.340;10.886;2023-03-23T11:44:22;14.60;99.90
9385;DHT22;4732;49.340;10.886;2023-03-23T11:47:04;14.70;99.90
9385;DHT22;4732;49.340;10.886;2023-03-23T11:49:47;14.60;99.90
9385;DHT22;4732;49.340;10.886;2023-03-23T11:55:26;14.50;99.90
9385;DHT22;4732;49.340;10.886;2023-03-23T11:57:55;14.30;99.90
9385;DHT22;4732;49.340;10.886;2023-03-23T12:00:23;14.30;99.90
9385;DHT22;4732;49.340;10.886;2023-03-23T12:06:03;14.20;99.90
9385;DHT22;4732;49.340;10.886;2023-03-23T12:11:31;14.30;99.90
9385;DHT22;4732;49.340;10.886;2023-03-23T12:14:29;14.40;99.90
9385;DHT22;4732;49.340;10.886;2023-03-23T12:20:03;14.80;99.90
9385;DHT22;4732;49.340;10.886;2023-03-23T12:23:20;14.90;99.90
9385;DHT22;4732;49.340;10.886;2023-03-23T12:26:09;15.00;99.90
9385;DHT22;4732;49.340;10.886;2023-03-23T12:28:41;15.10;99.90
9385;DHT22;4732;49.340;10.886;2023-03-23T12:42:21;15.50;99.90
9385;DHT22;4732;49.340;10.886;2023-03-23T12:44:53;15.50;99.90
9385;DHT22;4732;49.340;10.886;2023-03-23T12:47:42;15.90;99.90
9385;DHT22;4732;49.340;10.886;2023-03-23T12:50:30;15.50;99.90
9385;DHT22;4732;49.340;10.886;2023-03-23T12:53:10;15.50;99.90
9385;DHT22;4732;49.340;10.886;2023-03-23T12:55:52;15.50;99.90
9385;DHT22;4732;49.340;10.886;2023-03-23T12:58:21;15.50;99.90
9385;DHT22;4732;49.340;10.886;2023-03-23T13:03:54;15.50;99.90
9385;DHT22;4732;49.340;10.886;2023-03-23T13:06:27;15.40;99.90
9385;DHT22;4732;49.340;10.886;2023-03-23T13:11:35;15.50;99.90
9385;DHT22;4732;49.340;10.886;2023-03-23T13:17:22;15.40;99.90
9385;DHT22;4732;49.340;10.886;2023-03-23T13:23:09;15.50;99.90
9385;DHT22;4732;49.340;10.886;2023-03-23T13:25:46;15.50;99.90
9385;DHT22;4732;49.340;10.886;2023-03-23T13:28:16;15.50;99.90
9385;DHT22;4732;49.340;10.886;2023-03-23T13:30:53;15.70;99.90
9385;DHT22;4732;49.340;10.886;2023-03-23T13:33:20;15.70;99.90
9385;DHT22;4732;49.340;10.886;2023-03-23T13:35:48;15.80;99.90
9385;DHT22;4732;49.340;10.886;2023-03-23T13:38:27;15.90;99.90
9385;DHT22;4732;49.340;10.886;2023-03-23T13:40:56;16.10;99.90
9385;DHT22;4732;49.340;10.886;2023-03-23T13:43:31;16.10;99.90
9385;DHT22;4732;49.340;10.886;2023-03-23T13:46:12;16.10;99.90
9385;DHT22;4732;49.340;10.886;2023-03-23T13:48:47;16.20;99.90
9385;DHT22;4732;49.340;10.886;2023-03-23T13:51:35;16.20;99.90
9385;DHT22;4732;49.340;10.886;2023-03-23T13:54:44;16.10;99.90
9385;DHT22;4732;49.340;10.886;2023-03-23T13:57:24;16.20;99.90
9385;DHT22;4732;49.340;10.886;2023-03-23T13:59:56;16.30;99.90
9385;DHT22;4732;49.340;10.886;2023-03-23T14:02:34;16.20;99.90
9385;DHT22;4732;49.340;10.886;2023-03-23T14:05:29;16.10;99.90
9385;DHT22;4732;49.340;10.886;2023-03-23T14:08:01;16.20;99.90
9385;DHT22;4732;49.340;10.886;2023-03-23T14:14:00;16.10;99.90
9385;DHT22;4732;49.340;10.886;2023-03-23T14:16:37;16.00;99.90
9385;DHT22;4732;49.340;10.886;2023-03-23T14:19:13;15.80;99.90
9385;DHT22;4732;49.340;10.886;2023-03-23T14:21:44;15.70;99.90
9385;DHT22;4732;49.340;10.886;2023-03-23T14:24:26;15.70;99.90
9385;DHT22;4732;49.340;10.886;2023-03-23T14:27:01;15.80;99.90
9385;DHT22;4732;49.340;10.886;2023-03-23T14:29:27;15.80;99.90
9385;DHT22;4732;49.340;10.886;2023-03-23T14:31:55;15.70;99.90
9385;DHT22;4732;49.340;10.886;2023-03-23T14:34:28;15.60;99.90
9385;DHT22;4732;49.340;10.886;2023-03-23T14:36:55;15.70;99.90
9385;DHT22;4732;49.340;10.886;2023-03-23T14:39:32;15.70;99.90
9385;DHT22;4732;49.340;10.886;2023-03-23T14:42:19;15.80;99.90
9385;DHT22;4732;49.340;10.886;2023-03-23T14:44:48;15.70;99.90
9385;DHT22;4732;49.340;10.886;2023-03-23T14:47:19;15.70;99.90
9385;DHT22;4732;49.340;10.886;2023-03-23T14:49:45;15.60;99.90
9385;DHT22;4732;49.340;10.886;2023-03-23T14:52:13;15.60;99.90
9385;DHT22;4732;49.340;10.886;2023-03-23T14:54:39;15.50;99.90
9385;DHT22;4732;49.340;10.886;2023-03-23T14:57:18;15.50;99.90
9385;DHT22;4732;49.340;10.886;2023-03-23T14:59:46;15.50;99.90
9385;DHT22;4732;49.340;10.886;2023-03-23T15:04:58;15.40;99.90
9385;DHT22;4732;49.340;10.886;2023-03-23T15:07:33;15.40;99.90
9385;DHT22;4732;49.340;10.886;2023-03-23T15:09:59;15.30;99.90
9385;DHT22;4732;49.340;10.886;2023-03-23T15:12:27;15.20;99.90
9385;DHT22;4732;49.340;10.886;2023-03-23T15:14:57;15.20;99.90
9385;DHT22;4732;49.340;10.886;2023-03-23T15:17:25;15.20;99.90
9385;DHT22;4732;49.340;10.886;2023-03-23T15:19:52;15.20;99.90
9385;DHT22;4732;49.340;10.886;2023-03-23T15:24:46;15.20;99.90
9385;DHT22;4732;49.340;10.886;2023-03-23T15:29:54;15.10;99.90
9385;DHT22;4732;49.340;10.886;2023-03-23T15:32:22;15.10;99.90
9385;DHT22;4732;49.340;10.886;2023-03-23T15:34:48;15.10;99.90
9385;DHT22;4732;49.340;10.886;2023-03-23T15:37:28;15.00;99.90
9385;DHT22;4732;49.340;10.886;2023-03-23T15:39:58;14.90;99.90
9385;DHT22;4732;49.340;10.886;2023-03-23T15:42:32;14.80;99.90
9385;DHT22;4732;49.340;10.886;2023-03-23T15:50:19;14.70;99.90
9385;DHT22;4732;49.340;10.886;2023-03-23T15:52:46;14.70;99.90
9385;DHT22;4732;49.340;10.886;2023-03-23T15:57:44;14.70;99.90
9385;DHT22;4732;49.340;10.886;2023-03-23T16:00:10;14.70;99.90
9385;DHT22;4732;49.340;10.886;2023-03-23T16:02:36;14.70;99.90
9385;DHT22;4732;49.340;10.886;2023-03-23T16:05:02;14.80;99.90
9385;DHT22;4732;49.340;10.886;2023-03-23T16:07:28;14.70;99.90
9385;DHT22;4732;49.340;10.886;2023-03-23T16:09:53;14.70;99.90
9385;DHT22;4732;49.340;10.886;2023-03-23T16:12:19;14.70;99.90
9385;DHT22;4732;49.340;10.886;2023-03-23T16:14:44;14.60;99.90
9385;DHT22;4732;49.340;10.886;2023-03-23T16:17:11;14.60;99.90
9385;DHT22;4732;49.340;10.886;2023-03-23T16:19:40;14.60;99.90
9385;DHT22;4732;49.340;10.886;2023-03-23T16:22:05;14.50;99.90
9385;DHT22;4732;49.340;10.886;2023-03-23T16:24:31;14.50;99.90
9385;DHT22;4732;49.340;10.886;2023-03-23T16:26:57;14.50;99.90
9385;DHT22;4732;49.340;10.886;2023-03-23T16:29:22;14.50;99.90
9385;DHT22;4732;49.340;10.886;2023-03-23T16:31:48;14.30;99.90
9385;DHT22;4732;49.340;10.886;2023-03-23T16:34:13;14.40;99.90
9385;DHT22;4732;49.340;10.886;2023-03-23T16:36:39;14.40;99.90
9385;DHT22;4732;49.340;10.886;2023-03-23T16:39:04;14.40;99.90
9385;DHT22;4732;49.340;10.886;2023-03-23T16:41:30;14.30;99.90
9385;DHT22;4732;49.340;10.886;2023-03-23T16:43:55;14.30;99.90
9385;DHT22;4732;49.340;10.886;2023-03-23T16:46:21;14.30;99.90
9385;DHT22;4732;49.340;10.886;2023-03-23T16:48:47;14.30;99.90
9385;DHT22;4732;49.340;10.886;2023-03-23T16:51:12;14.20;99.90
9385;DHT22;4732;49.340;10.886;2023-03-23T16:53:38;14.20;99.90
9385;DHT22;4732;49.340;10.886;2023-03-23T16:56:04;14.20;99.90
9385;DHT22;4732;49.340;10.886;2023-03-23T16:58:29;14.10;99.90
9385;DHT22;4732;49.340;10.886;2023-03-23T17:00:55;14.10;99.90
9385;DHT22;4732;49.340;10.886;2023-03-23T17:03:21;14.10;99.90
9385;DHT22;4732;49.340;10.886;2023-03-23T17:05:48;14.10;99.90
9385;DHT22;4732;49.340;10.886;2023-03-23T17:08:15;14.10;99.90
9385;DHT22;4732;49.340;10.886;2023-03-23T17:10:41;14.00;99.90
9385;DHT22;4732;49.340;10.886;2023-03-23T17:13:08;14.10;99.90
9385;DHT22;4732;49.340;10.886;2023-03-23T17:15:38;14.00;99.90
9385;DHT22;4732;49.340;10.886;2023-03-23T17:18:04;14.00;99.90
9385;DHT22;4732;49.340;10.886;2023-03-23T17:20:30;14.00;99.90
9385;DHT22;4732;49.340;10.886;2023-03-23T17:22:56;13.90;99.90
9385;DHT22;4732;49.340;10.886;2023-03-23T17:25:23;13.80;99.90
9385;DHT22;4732;49.340;10.886;2023-03-23T17:27:49;13.90;99.90
9385;DHT22;4732;49.340;10.886;2023-03-23T17:30:16;13.90;99.90
9385;DHT22;4732;49.340;10.886;2023-03-23T17:32:42;13.90;99.90
9385;DHT22;4732;49.340;10.886;2023-03-23T17:35:07;13.80;99.90
9385;DHT22;4732;49.340;10.886;2023-03-23T17:37:33;13.80;99.90
9385;DHT22;4732;49.340;10.886;2023-03-23T17:40:00;13.80;99.90
9385;DHT22;4732;49.340;10.886;2023-03-23T17:42:26;13.80;99.90
9385;DHT22;4732;49.340;10.886;2023-03-23T17:44:51;13.80;99.90
9385;DHT22;4732;49.340;10.886;2023-03-23T17:47:17;13.70;99.90
9385;DHT22;4732;49.340;10.886;2023-03-23T17:49:43;13.70;99.90
9385;DHT22;4732;49.340;10.886;2023-03-23T17:52:08;13.70;99.90
9385;DHT22;4732;49.340;10.886;2023-03-23T17:54:34;13.70;99.90
9385;DHT22;4732;49.340;10.886;2023-03-23T17:56:59;13.70;99.90
9385;DHT22;4732;49.340;10.886;2023-03-23T17:59:28;13.60;99.90
9385;DHT22;4732;49.340;10.886;2023-03-23T18:01:54;13.60;99.90
9385;DHT22;4732;49.340;10.886;2023-03-23T18:04:20;13.60;99.90
9385;DHT22;4732;49.340;10.886;2023-03-23T18:06:46;13.60;99.90
9385;DHT22;4732;49.340;10.886;2023-03-23T18:09:12;13.50;99.90
9385;DHT22;4732;49.340;10.886;2023-03-23T18:11:39;13.50;99.90
9385;DHT22;4732;49.340;10.886;2023-03-23T18:14:05;13.50;99.90
9385;DHT22;4732;49.340;10.886;2023-03-23T18:16:30;13.40;99.90
9385;DHT22;4732;49.340;10.886;2023-03-23T18:18:56;13.50;99.90
9385;DHT22;4732;49.340;10.886;2023-03-23T18:21:22;13.50;99.90
9385;DHT22;4732;49.340;10.886;2023-03-23T18:23:48;13.50;99.90
9385;DHT22;4732;49.340;10.886;2023-03-23T18:26:14;13.50;99.90
9385;DHT22;4732;49.340;10.886;2023-03-23T18:28:41;13.50;99.90
9385;DHT22;4732;49.340;10.886;2023-03-23T18:31:14;13.50;99.90
9385;DHT22;4732;49.340;10.886;2023-03-23T18:33:41;13.50;99.90
9385;DHT22;4732;49.340;10.886;2023-03-23T18:36:07;13.40;99.90
9385;DHT22;4732;49.340;10.886;2023-03-23T18:38:33;13.40;99.90
9385;DHT22;4732;49.340;10.886;2023-03-23T18:40:59;13.40;99.90
9385;DHT22;4732;49.340;10.886;2023-03-23T18:43:26;13.40;99.90
9385;DHT22;4732;49.340;10.886;2023-03-23T18:45:54;13.40;99.90
9385;DHT22;4732;49.340;10.886;2023-03-23T18:48:20;13.40;99.90
9385;DHT22;4732;49.340;10.886;2023-03-23T18:50:51;13.40;99.90
9385;DHT22;4732;49.340;10.886;2023-03-23T18:53:17;13.40;99.90
9385;DHT22;4732;49.340;10.886;2023-03-23T18:55:44;13.40;99.90
9385;DHT22;4732;49.340;10.886;2023-03-23T18:58:11;13.50;99.90
9385;DHT22;4732;49.340;10.886;2023-03-23T19:00:39;13.50;99.90
9385;DHT22;4732;49.340;10.886;2023-03-23T19:03:05;13.50;99.90
9385;DHT22;4732;49.340;10.886;2023-03-23T19:05:33;13.40;99.90
9385;DHT22;4732;49.340;10.886;2023-03-23T19:07:58;13.40;99.90
9385;DHT22;4732;49.340;10.886;2023-03-23T19:10:25;13.50;99.90
9385;DHT22;4732;49.340;10.886;2023-03-23T19:12:51;13.50;99.90
9385;DHT22;4732;49.340;10.886;2023-03-23T19:15:17;13.50;99.90
9385;DHT22;4732;49.340;10.886;2023-03-23T19:17:43;13.50;99.90
9385;DHT22;4732;49.340;10.886;2023-03-23T19:20:09;13.50;99.90
9385;DHT22;4732;49.340;10.886;2023-03-23T19:22:36;13.50;99.90
9385;DHT22;4732;49.340;10.886;2023-03-23T19:25:03;13.50;99.90
9385;DHT22;4732;49.340;10.886;2023-03-23T19:27:29;13.40;99.90
9385;DHT22;4732;49.340;10.886;2023-03-23T19:29:54;13.40;99.90
9385;DHT22;4732;49.340;10.886;2023-03-23T19:32:20;13.40;99.90
9385;DHT22;4732;49.340;10.886;2023-03-23T19:34:45;13.40;99.90
9385;DHT22;4732;49.340;10.886;2023-03-23T19:37:11;13.40;99.90
9385;DHT22;4732;49.340;10.886;2023-03-23T19:39:37;13.40;99.90
9385;DHT22;4732;49.340;10.886;2023-03-23T19:42:04;13.40;99.90
9385;DHT22;4732;49.340;10.886;2023-03-23T19:44:30;13.30;99.90
9385;DHT22;4732;49.340;10.886;2023-03-23T19:46:57;13.30;99.90
9385;DHT22;4732;49.340;10.886;2023-03-23T19:49:23;13.30;99.90
9385;DHT22;4732;49.340;10.886;2023-03-23T19:51:49;13.30;99.90
9385;DHT22;4732;49.340;10.886;2023-03-23T19:54:14;13.30;99.90
9385;DHT22;4732;49.340;10.886;2023-03-23T19:56:40;13.50;99.90
9385;DHT22;4732;49.340;10.886;2023-03-23T19:59:09;13.30;99.90
9385;DHT22;4732;49.340;10.886;2023-03-23T20:01:35;13.30;99.90
9385;DHT22;4732;49.340;10.886;2023-03-23T20:04:01;13.30;99.90
9385;DHT22;4732;49.340;10.886;2023-03-23T20:06:29;13.20;99.90
9385;DHT22;4732;49.340;10.886;2023-03-23T20:08:55;13.20;99.90
9385;DHT22;4732;49.340;10.886;2023-03-23T20:11:21;13.20;99.90
9385;DHT22;4732;49.340;10.886;2023-03-23T20:13:46;13.20;99.90
9385;DHT22;4732;49.340;10.886;2023-03-23T20:16:14;13.20;99.90
9385;DHT22;4732;49.340;10.886;2023-03-23T20:18:40;13.20;99.90
9385;DHT22;4732;49.340;10.886;2023-03-23T20:21:12;13.20;99.90
9385;DHT22;4732;49.340;10.886;2023-03-23T20:23:39;13.10;99.90
9385;DHT22;4732;49.340;10.886;2023-03-23T20:26:12;13.10;99.90
9385;DHT22;4732;49.340;10.886;2023-03-23T20:28:38;13.10;99.90
9385;DHT22;4732;49.340;10.886;2023-03-23T20:31:05;13.00;99.90
9385;DHT22;4732;49.340;10.886;2023-03-23T20:33:32;13.00;99.90
9385;DHT22;4732;49.340;10.886;2023-03-23T20:35:57;13.00;99.90
9385;DHT22;4732;49.340;10.886;2023-03-23T20:38:24;12.90;99.90
9385;DHT22;4732;49.340;10.886;2023-03-23T20:40:49;12.90;99.90
9385;DHT22;4732;49.340;10.886;2023-03-23T20:43:15;12.90;99.90
9385;DHT22;4732;49.340;10.886;2023-03-23T20:45:41;12.90;99.90
9385;DHT22;4732;49.340;10.886;2023-03-23T20:48:06;12.80;99.90
9385;DHT22;4732;49.340;10.886;2023-03-23T20:50:34;12.80;99.90
9385;DHT22;4732;49.340;10.886;2023-03-23T20:52:59;12.70;99.90
9385;DHT22;4732;49.340;10.886;2023-03-23T20:55:25;12.70;99.90
9385;DHT22;4732;49.340;10.886;2023-03-23T20:57:51;12.70;99.90
9385;DHT22;4732;49.340;10.886;2023-03-23T21:00:17;12.70;99.90
9385;DHT22;4732;49.340;10.886;2023-03-23T21:02:43;12.60;99.90
9385;DHT22;4732;49.340;10.886;2023-03-23T21:05:09;12.70;99.90
9385;DHT22;4732;49.340;10.886;2023-03-23T21:07:35;12.70;99.90
9385;DHT22;4732;49.340;10.886;2023-03-23T21:10:01;12.70;99.90
9385;DHT22;4732;49.340;10.886;2023-03-23T21:12:27;12.60;99.90
9385;DHT22;4732;49.340;10.886;2023-03-23T21:14:52;12.60;99.90